Terminal Aerodrome Forecast
Issued by NWS Omaha/Valley, NE

Home | Current Version | Previous Version | Graphics & Text | Print | Product List | Glossary On
Versions: 1 2 3 4 5 6 7 8 9 10 11 12 13 14 15 16 17 18 19 20 21 22 23 24 25 26 27 28 29 30 31 32 33 34
000
FTUS43 KOAX 251132
TAFOFK
TAF
KOFK 251132Z 2512/2612 16008KT P6SM SKC WS020/20040KT
     FM251400 19016G23KT P6SM SKC
     FM260100 16011KT P6SM BKN250
     FM260600 14006KT P6SM SCT040 BKN080
      TEMPO 2606/2608 -TSRA BKN040CB
     FM260800 12005KT P6SM VCTS BKN040CB OVC070=

USA.gov is the U.S. government's official web portal to all federal, state and local government web resources and services.